Time;durP1;ratioP1;P1;durP2;ratioP2;P2;SDS_P1;SDS_P2;PMS_P1;PMS_P2;Temp;Humidity;BMP_temperature;BMP_pressure;BME280_temperature;BME280_humidity;BME280_pressure;Samples;Min_cycle;Max_cycle;Signal;HPM_P1;HPM_P2
2021/12/29 00:00:26;;;;;;;38.78;22.17;;;6.00;99.90;;;;;;12489264;28;20049;-39
2021/12/29 00:06:29;;;;;;;44.17;22.75;;;6.00;99.90;;;;;;12524441;28;20059;-38
2021/12/29 00:12:35;;;;;;;39.38;21.65;;;6.10;99.90;;;;;;12526338;28;20140;-40
2021/12/29 00:18:38;;;;;;;34.90;21.15;;;6.10;99.90;;;;;;12506611;28;20045;-39
2021/12/29 00:24:45;;;;;;;44.13;23.50;;;6.10;99.90;;;;;;12446072;28;20099;-40
2021/12/29 00:30:51;;;;;;;45.22;25.15;;;6.20;99.90;;;;;;12456234;28;20052;-40
2021/12/29 00:36:54;;;;;;;47.73;25.63;;;6.20;99.90;;;;;;12470138;28;20057;-39
2021/12/29 00:42:56;;;;;;;50.97;26.83;;;6.20;99.90;;;;;;12472326;28;20429;-39
2021/12/29 00:49:04;;;;;;;53.45;27.30;;;6.20;99.90;;;;;;12458036;28;20096;-39
2021/12/29 00:55:20;;;;;;;50.38;26.17;;;6.20;99.90;;;;;;12467660;28;20500;-39
2021/12/29 01:01:32;;;;;;;56.22;26.95;;;6.30;99.90;;;;;;12476701;28;20081;-38
2021/12/29 01:07:44;;;;;;;55.80;26.13;;;6.30;99.90;;;;;;12473772;28;20050;-40
2021/12/29 01:13:53;;;;;;;52.83;26.20;;;6.30;99.90;;;;;;12470812;28;20073;-40
2021/12/29 01:20:05;;;;;;;56.33;25.98;;;6.30;99.90;;;;;;12487064;28;20049;-39
2021/12/29 01:26:12;;;;;;;53.65;24.88;;;6.30;99.90;;;;;;12522077;28;20049;-39
2021/12/29 01:32:28;;;;;;;54.33;23.60;;;6.40;99.90;;;;;;12532290;28;20049;-39
2021/12/29 01:38:39;;;;;;;53.85;23.10;;;6.40;99.90;;;;;;12529247;28;20049;-40
2021/12/29 01:44:52;;;;;;;42.15;19.88;;;6.50;99.90;;;;;;12510478;28;20045;-38
2021/12/29 01:51:03;;;;;;;40.63;18.50;;;6.50;99.90;;;;;;12532630;28;20045;-40
2021/12/29 01:57:14;;;;;;;39.63;16.80;;;6.60;99.90;;;;;;12535286;28;20048;-38
2021/12/29 02:03:23;;;;;;;38.63;17.17;;;6.60;99.90;;;;;;12508477;28;20504;-40
2021/12/29 02:09:35;;;;;;;36.58;17.17;;;6.60;99.90;;;;;;12516114;28;20101;-39
2021/12/29 02:15:44;;;;;;;36.40;17.20;;;6.60;99.90;;;;;;12520982;28;20398;-39
2021/12/29 02:22:04;;;;;;;42.85;18.70;;;6.60;99.90;;;;;;12524866;28;20409;-38
2021/12/29 02:28:25;;;;;;;40.90;18.70;;;6.70;99.90;;;;;;12534231;28;20131;-39
2021/12/29 02:34:34;;;;;;;29.83;14.68;;;6.80;99.90;;;;;;12500010;28;20064;-38
2021/12/29 02:40:41;;;;;;;27.55;13.73;;;6.90;99.90;;;;;;12536212;28;20412;-40
2021/12/29 02:46:49;;;;;;;25.95;12.13;;;7.00;99.90;;;;;;12532345;28;20048;-39
2021/12/29 02:52:58;;;;;;;20.95;10.88;;;7.00;99.90;;;;;;12535054;28;20182;-39
2021/12/29 02:59:05;;;;;;;18.92;10.15;;;7.00;99.90;;;;;;12512701;28;20494;-39
2021/12/29 03:05:15;;;;;;;15.95;8.18;;;7.10;99.90;;;;;;12517938;28;20056;-39
2021/12/29 03:11:25;;;;;;;16.80;8.82;;;7.10;99.90;;;;;;12534869;28;20056;-40
2021/12/29 03:17:32;;;;;;;14.95;8.73;;;7.10;99.90;;;;;;12533852;28;20053;-41
2021/12/29 03:23:46;;;;;;;13.77;7.60;;;7.00;99.90;;;;;;12524188;28;20052;-40
2021/12/29 03:29:58;;;;;;;14.75;6.70;;;7.00;99.90;;;;;;12513407;28;20484;-39
2021/12/29 03:36:13;;;;;;;13.25;5.85;;;7.10;99.90;;;;;;12532944;28;20056;-40
2021/12/29 03:42:26;;;;;;;14.50;6.15;;;7.00;99.90;;;;;;12518968;28;20044;-40
2021/12/29 03:48:45;;;;;;;12.10;5.70;;;7.00;99.90;;;;;;12514197;28;20488;-39
2021/12/29 03:54:58;;;;;;;10.55;4.53;;;7.00;99.90;;;;;;12479116;28;20045;-39
2021/12/29 04:01:11;;;;;;;9.57;4.03;;;7.00;99.90;;;;;;12508672;28;20036;-40
2021/12/29 04:07:26;;;;;;;9.93;4.40;;;7.00;99.90;;;;;;12535643;28;20052;-39
2021/12/29 04:13:39;;;;;;;10.60;4.15;;;6.90;99.90;;;;;;12528915;28;20045;-39
2021/12/29 04:26:26;;;;;;;14.00;5.18;;;7.00;99.90;;;;;;12529983;28;20052;-39
2021/12/29 04:32:41;;;;;;;15.97;5.50;;;7.00;99.90;;;;;;12528956;28;20057;-38
2021/12/29 04:38:58;;;;;;;12.52;5.25;;;6.90;99.90;;;;;;12528266;28;20053;-40
2021/12/29 04:45:16;;;;;;;13.88;5.32;;;7.00;99.90;;;;;;12513920;28;20053;-40
2021/12/29 04:51:33;;;;;;;12.95;6.03;;;7.00;99.90;;;;;;12521671;28;20049;-40
2021/12/29 04:57:44;;;;;;;11.60;5.85;;;7.00;99.90;;;;;;12531709;28;20072;-38
2021/12/29 05:03:59;;;;;;;11.25;5.28;;;7.00;99.90;;;;;;12523199;28;20094;-39
2021/12/29 05:10:23;;;;;;;12.73;5.68;;;7.00;99.90;;;;;;12537797;28;20041;-39
2021/12/29 05:16:39;;;;;;;13.27;5.00;;;7.00;99.90;;;;;;12540650;28;20647;-40
2021/12/29 05:22:59;;;;;;;13.75;5.35;;;7.00;99.90;;;;;;12521172;28;20076;-38
2021/12/29 05:29:11;;;;;;;10.32;4.68;;;7.10;99.90;;;;;;12540736;28;20524;-38
2021/12/29 05:35:27;;;;;;;12.43;4.32;;;7.10;99.90;;;;;;12529954;28;20048;-38
2021/12/29 05:41:41;;;;;;;9.98;5.00;;;7.10;99.90;;;;;;12539867;28;20409;-39
2021/12/29 05:48:01;;;;;;;9.43;4.45;;;7.10;99.90;;;;;;12537634;28;20061;-39
2021/12/29 05:54:10;;;;;;;18.95;6.15;;;7.10;99.90;;;;;;12493025;28;20053;-38
2021/12/29 06:00:24;;;;;;;9.45;5.38;;;7.10;99.90;;;;;;12536186;28;20059;-38
2021/12/29 06:06:33;;;;;;;9.48;4.70;;;7.10;99.90;;;;;;12535766;28;20041;-39
2021/12/29 06:12:41;;;;;;;10.02;4.70;;;7.20;99.90;;;;;;12530277;28;20056;-40
2021/12/29 06:18:43;;;;;;;12.13;4.90;;;7.30;99.90;;;;;;12527691;28;20441;-39
2021/12/29 06:24:51;;;;;;;10.38;5.28;;;7.40;99.90;;;;;;12526461;28;20148;-41
2021/12/29 06:30:54;;;;;;;14.90;6.50;;;7.50;99.90;;;;;;12524331;28;20139;-40
2021/12/29 06:37:08;;;;;;;24.40;7.80;;;7.50;99.90;;;;;;12509238;28;20065;-39
2021/12/29 06:43:14;;;;;;;19.60;8.07;;;7.50;99.90;;;;;;12526577;28;20180;-40
2021/12/29 06:49:17;;;;;;;13.25;7.00;;;7.50;99.90;;;;;;12529162;28;20056;-39
2021/12/29 06:55:20;;;;;;;15.45;6.95;;;7.60;99.90;;;;;;12525375;28;20049;-39
2021/12/29 07:01:25;;;;;;;17.70;7.15;;;7.60;99.90;;;;;;12525177;28;21106;-40
2021/12/29 07:07:29;;;;;;;14.55;7.20;;;7.60;99.90;;;;;;12527788;28;20132;-39
2021/12/29 07:13:35;;;;;;;17.23;7.32;;;7.60;99.90;;;;;;12529554;28;20052;-39
2021/12/29 07:19:42;;;;;;;14.30;7.50;;;7.60;99.90;;;;;;12526390;28;20067;-39
2021/12/29 07:25:49;;;;;;;13.68;6.93;;;7.60;99.90;;;;;;12509990;28;20136;-39
2021/12/29 07:31:53;;;;;;;13.75;6.68;;;7.60;99.90;;;;;;12527108;28;20060;-40
2021/12/29 07:37:59;;;;;;;18.38;7.95;;;7.60;99.90;;;;;;12507432;28;21906;-39
2021/12/29 07:44:03;;;;;;;13.73;7.10;;;7.60;99.90;;;;;;12523802;28;20139;-39
2021/12/29 07:50:06;;;;;;;13.93;7.10;;;7.60;99.90;;;;;;12522660;28;20037;-40
2021/12/29 07:56:28;;;;;;;13.82;7.10;;;7.50;99.90;;;;;;12526319;28;20048;-39
2021/12/29 08:02:30;;;;;;;14.30;6.85;;;7.60;99.90;;;;;;12522850;28;20409;-39
2021/12/29 08:08:33;;;;;;;12.02;6.70;;;7.60;99.90;;;;;;12521799;28;20048;-39
2021/12/29 08:14:35;;;;;;;16.58;6.70;;;7.60;99.90;;;;;;12523389;28;20052;-40
2021/12/29 08:20:38;;;;;;;9.07;5.82;;;7.50;99.90;;;;;;12522590;28;20514;-39
2021/12/29 08:26:41;;;;;;;13.20;5.57;;;7.60;99.90;;;;;;12524049;28;20041;-40
2021/12/29 08:32:43;;;;;;;14.50;5.93;;;7.60;99.90;;;;;;12522452;28;20055;-39
2021/12/29 08:38:47;;;;;;;11.18;5.43;;;7.60;99.90;;;;;;12506796;28;20044;-39
2021/12/29 08:44:49;;;;;;;11.10;5.28;;;7.60;99.90;;;;;;12531357;28;20069;-40
2021/12/29 08:50:51;;;;;;;10.00;5.38;;;7.60;99.90;;;;;;12533766;28;20837;-40
2021/12/29 08:56:54;;;;;;;10.48;5.38;;;7.70;99.90;;;;;;12531920;28;20053;-39
2021/12/29 09:02:57;;;;;;;10.77;5.50;;;7.60;99.90;;;;;;12529845;28;20060;-39
2021/12/29 09:08:59;;;;;;;8.55;5.25;;;7.70;99.90;;;;;;12531169;28;20477;-38
2021/12/29 09:15:05;;;;;;;10.38;5.60;;;7.80;99.90;;;;;;12529803;28;20064;-39
2021/12/29 09:21:13;;;;;;;10.73;5.38;;;7.70;99.90;;;;;;12530909;28;20052;-40
2021/12/29 09:27:16;;;;;;;12.48;5.90;;;7.70;99.90;;;;;;12528164;28;20049;-39
2021/12/29 09:33:20;;;;;;;10.93;6.03;;;7.70;99.90;;;;;;12530979;28;20499;-40
2021/12/29 09:39:24;;;;;;;11.82;6.28;;;7.70;99.90;;;;;;12525317;28;20056;-41
2021/12/29 09:45:26;;;;;;;11.63;6.37;;;7.80;99.90;;;;;;12525591;28;20819;-39
2021/12/29 09:51:29;;;;;;;11.35;6.10;;;7.70;99.90;;;;;;12521202;28;20076;-39
2021/12/29 09:57:32;;;;;;;12.38;5.97;;;7.80;99.90;;;;;;12520212;28;20049;-39
2021/12/29 10:03:35;;;;;;;14.70;6.72;;;7.80;99.90;;;;;;12526351;28;20107;-39
2021/12/29 10:09:36;;;;;;;16.08;6.43;;;7.80;99.90;;;;;;12526488;28;20097;-40
2021/12/29 10:15:45;;;;;;;13.13;6.20;;;7.80;99.90;;;;;;12526970;28;20044;-39
2021/12/29 10:21:48;;;;;;;12.98;6.55;;;7.80;99.90;;;;;;12526075;28;20156;-39
2021/12/29 10:27:52;;;;;;;17.80;7.47;;;7.90;99.90;;;;;;12525788;28;20048;-40
2021/12/29 10:33:57;;;;;;;15.60;7.00;;;7.90;99.90;;;;;;12524361;28;20589;-39
2021/12/29 10:39:59;;;;;;;17.27;8.00;;;7.90;99.90;;;;;;12521198;28;20053;-39
2021/12/29 10:46:01;;;;;;;17.85;8.32;;;7.90;99.90;;;;;;12525470;28;20501;-39
2021/12/29 10:52:03;;;;;;;16.20;8.27;;;8.00;99.90;;;;;;12524885;28;20056;-38
2021/12/29 10:58:09;;;;;;;15.77;7.72;;;8.00;99.90;;;;;;12527585;28;20116;-39
2021/12/29 11:04:17;;;;;;;22.60;7.97;;;8.00;99.90;;;;;;12516098;28;21062;-39
2021/12/29 11:10:24;;;;;;;17.98;8.25;;;8.00;99.90;;;;;;12527066;28;20416;-40
2021/12/29 11:16:26;;;;;;;17.80;7.72;;;8.00;99.90;;;;;;12526276;28;20057;-39
2021/12/29 11:22:29;;;;;;;16.83;8.70;;;8.00;99.90;;;;;;12524038;28;20045;-39
2021/12/29 11:28:32;;;;;;;21.23;8.40;;;8.00;99.90;;;;;;12525973;28;20049;-39
2021/12/29 11:34:35;;;;;;;20.63;8.85;;;8.10;99.90;;;;;;12506790;28;20837;-39
2021/12/29 11:40:41;;;;;;;17.63;8.23;;;8.10;99.90;;;;;;12527488;28;20084;-38
2021/12/29 11:46:44;;;;;;;24.13;9.35;;;8.10;99.90;;;;;;12526639;28;20098;-39
2021/12/29 11:53:20;;;;;;;17.65;7.97;;;8.20;99.90;;;;;;12527154;28;20394;-38
2021/12/29 11:59:30;;;;;;;19.13;7.45;;;8.20;99.90;;;;;;12524115;28;20136;-39
2021/12/29 12:05:40;;;;;;;16.23;8.00;;;8.20;99.90;;;;;;12523933;28;20045;-38
2021/12/29 12:11:48;;;;;;;15.55;7.15;;;8.20;99.90;;;;;;12517922;28;20076;-38
2021/12/29 12:17:55;;;;;;;16.75;7.43;;;8.20;99.90;;;;;;12523284;28;20754;-38
2021/12/29 12:24:09;;;;;;;20.60;8.35;;;8.20;99.90;;;;;;12522893;28;20552;-39
2021/12/29 12:30:19;;;;;;;18.52;8.52;;;8.20;99.90;;;;;;12524134;28;20111;-39
2021/12/29 12:36:31;;;;;;;16.52;8.82;;;8.20;99.90;;;;;;12523546;28;20102;-38
2021/12/29 12:42:34;;;;;;;14.93;8.10;;;8.20;99.90;;;;;;12527008;28;20052;-39
2021/12/29 12:48:36;;;;;;;13.25;8.07;;;8.10;99.90;;;;;;12523290;28;20057;-39
2021/12/29 12:54:58;;;;;;;15.88;8.48;;;8.20;99.90;;;;;;12523654;28;20037;-38
2021/12/29 13:01:07;;;;;;;18.52;8.50;;;8.10;99.90;;;;;;12523694;28;20072;-38
2021/12/29 13:07:10;;;;;;;18.80;8.95;;;8.10;99.90;;;;;;12521049;28;20049;-38
2021/12/29 13:13:18;;;;;;;15.85;8.95;;;8.10;99.90;;;;;;12523968;28;20049;-40
2021/12/29 13:19:24;;;;;;;14.07;8.15;;;8.10;99.90;;;;;;12522382;28;20061;-40
2021/12/29 13:25:31;;;;;;;11.35;6.40;;;8.10;99.90;;;;;;12527556;28;20110;-40
2021/12/29 13:31:34;;;;;;;10.68;6.43;;;8.10;99.90;;;;;;12529361;28;20053;-38
2021/12/29 13:37:37;;;;;;;10.32;6.72;;;8.10;99.90;;;;;;12530896;28;20065;-39
2021/12/29 13:43:42;;;;;;;10.65;6.95;;;8.10;99.90;;;;;;12527836;28;20409;-40
2021/12/29 13:49:45;;;;;;;18.00;9.93;;;8.00;99.90;;;;;;12531663;28;20098;-40
2021/12/29 13:55:47;;;;;;;13.63;8.73;;;8.00;99.90;;;;;;12522512;28;20056;-40
2021/12/29 14:01:58;;;;;;;16.95;8.57;;;8.00;99.90;;;;;;12523353;28;20480;-38
2021/12/29 14:08:05;;;;;;;14.98;9.80;;;8.10;99.90;;;;;;12528791;28;20049;-41
2021/12/29 14:14:14;;;;;;;21.67;10.43;;;8.00;99.90;;;;;;12529422;28;20052;-39
2021/12/29 14:20:22;;;;;;;21.00;12.20;;;7.90;99.90;;;;;;12501261;28;20110;-39
2021/12/29 14:26:44;;;;;;;20.90;12.40;;;7.80;99.90;;;;;;12530190;28;20085;-38
2021/12/29 14:33:03;;;;;;;26.23;13.82;;;7.80;99.90;;;;;;12530910;28;20170;-38
2021/12/29 14:39:21;;;;;;;26.80;14.70;;;7.80;99.90;;;;;;12529656;28;20075;-39
2021/12/29 14:45:32;;;;;;;24.92;14.32;;;7.80;99.90;;;;;;12527293;28;20045;-38
2021/12/29 14:51:58;;;;;;;29.50;16.10;;;7.70;99.90;;;;;;12527687;28;20090;-38
2021/12/29 14:58:27;;;;;;;31.75;17.88;;;7.70;99.90;;;;;;12533706;28;20049;-38
2021/12/29 15:04:39;;;;;;;34.08;18.55;;;7.60;99.90;;;;;;12522706;28;20528;-39
2021/12/29 15:10:55;;;;;;;37.90;19.42;;;7.60;99.90;;;;;;12531236;28;20496;-40
2021/12/29 15:17:08;;;;;;;34.22;18.83;;;7.50;99.90;;;;;;12529786;28;20051;-39
2021/12/29 15:23:23;;;;;;;36.47;20.80;;;7.50;99.90;;;;;;12523425;28;20091;-39
2021/12/29 15:29:32;;;;;;;39.22;20.58;;;7.40;99.90;;;;;;12507568;28;20049;-39
2021/12/29 15:35:39;;;;;;;42.75;21.88;;;7.40;99.90;;;;;;12525096;28;20057;-39
2021/12/29 15:41:48;;;;;;;40.87;22.50;;;7.30;99.90;;;;;;12520050;28;20390;-38
2021/12/29 15:48:03;;;;;;;38.83;23.13;;;7.30;99.90;;;;;;12523589;28;20045;-38
2021/12/29 16:01:39;;;;;;;49.70;26.42;;;7.20;99.90;;;;;;12327775;28;20058;-39
2021/12/29 16:07:46;;;;;;;57.28;28.40;;;7.30;99.90;;;;;;12367495;28;20123;-39
2021/12/29 16:13:57;;;;;;;55.05;27.98;;;7.30;99.90;;;;;;12360591;28;20058;-38
2021/12/29 16:20:03;;;;;;;55.85;29.55;;;7.30;99.90;;;;;;12347308;28;20083;-40
2021/12/29 16:26:13;;;;;;;51.97;28.73;;;7.30;99.90;;;;;;12363250;28;20619;-40
2021/12/29 16:32:23;;;;;;;52.35;28.92;;;7.30;99.90;;;;;;12362423;28;20050;-39
2021/12/29 16:38:32;;;;;;;57.27;28.63;;;7.40;99.90;;;;;;12497212;28;20436;-39
2021/12/29 16:44:39;;;;;;;46.67;27.98;;;7.40;99.90;;;;;;12525295;28;20090;-40
2021/12/29 16:50:42;;;;;;;47.97;27.02;;;7.40;99.90;;;;;;12521194;28;20102;-39
2021/12/29 16:56:47;;;;;;;46.08;25.08;;;7.30;99.90;;;;;;12525363;28;20064;-38
2021/12/29 17:02:52;;;;;;;45.45;23.80;;;7.30;99.90;;;;;;12504906;28;20068;-38
2021/12/29 17:08:59;;;;;;;35.20;21.80;;;7.30;99.90;;;;;;12529991;28;20060;-40
2021/12/29 17:15:08;;;;;;;30.17;19.65;;;7.30;99.90;;;;;;12525994;28;20049;-39
2021/12/29 17:21:22;;;;;;;29.30;19.27;;;7.30;99.90;;;;;;12529715;28;20053;-39
2021/12/29 17:27:33;;;;;;;28.33;18.60;;;7.40;99.90;;;;;;12538453;28;20045;-39
2021/12/29 17:33:45;;;;;;;30.55;18.40;;;7.30;99.90;;;;;;12516460;28;20063;-38
2021/12/29 17:40:03;;;;;;;25.17;15.77;;;7.30;99.90;;;;;;12536478;28;20396;-38
2021/12/29 17:46:24;;;;;;;24.27;15.95;;;7.30;99.90;;;;;;12519289;28;20553;-39
2021/12/29 17:52:46;;;;;;;22.15;14.90;;;7.30;99.90;;;;;;12477493;28;20053;-38
2021/12/29 17:59:04;;;;;;;24.23;14.07;;;7.30;99.90;;;;;;12535964;28;20381;-40
2021/12/29 18:05:21;;;;;;;21.63;13.48;;;7.20;99.90;;;;;;12502181;28;20128;-38
2021/12/29 18:11:37;;;;;;;21.80;14.50;;;7.20;99.90;;;;;;12526071;28;20140;-38
2021/12/29 18:17:55;;;;;;;21.38;13.55;;;7.20;99.90;;;;;;12533123;28;20090;-40
2021/12/29 18:24:03;;;;;;;21.73;15.07;;;7.20;99.90;;;;;;12491133;28;20144;-38
2021/12/29 18:30:18;;;;;;;22.15;14.63;;;7.20;99.90;;;;;;12482238;28;20053;-40
2021/12/29 18:36:34;;;;;;;18.23;12.98;;;7.20;99.90;;;;;;12467805;28;20161;-39
2021/12/29 18:42:48;;;;;;;21.42;13.70;;;7.20;99.90;;;;;;12481257;28;20131;-39
2021/12/29 18:49:03;;;;;;;26.17;14.23;;;7.10;99.90;;;;;;12485584;28;20058;-39
2021/12/29 18:55:23;;;;;;;20.08;12.85;;;7.20;99.90;;;;;;12485731;28;20083;-39
2021/12/29 19:01:39;;;;;;;20.23;13.32;;;7.20;99.90;;;;;;12465293;28;20056;-39
2021/12/29 19:07:58;;;;;;;22.42;13.45;;;7.20;99.90;;;;;;12466828;28;20421;-39
2021/12/29 19:14:16;;;;;;;19.77;11.98;;;7.20;99.90;;;;;;12472773;28;20395;-38
2021/12/29 19:20:37;;;;;;;16.95;11.10;;;7.30;99.90;;;;;;12475302;28;20049;-39
2021/12/29 19:26:55;;;;;;;17.10;9.88;;;7.30;99.90;;;;;;12530087;28;20128;-39
2021/12/29 19:33:16;;;;;;;14.43;9.50;;;7.40;99.90;;;;;;12523706;28;20048;-38
2021/12/29 19:39:28;;;;;;;11.52;7.95;;;7.50;99.90;;;;;;12524125;28;20045;-39
2021/12/29 19:45:34;;;;;;;10.48;7.32;;;7.60;99.90;;;;;;12516706;28;20059;-38
2021/12/29 19:51:42;;;;;;;9.15;6.78;;;7.70;99.90;;;;;;12531564;28;20090;-40
2021/12/29 19:57:54;;;;;;;9.63;6.70;;;7.80;99.90;;;;;;12510641;28;20056;-39
2021/12/29 20:04:09;;;;;;;9.20;6.45;;;7.80;99.90;;;;;;12502904;28;20045;-40
2021/12/29 20:10:23;;;;;;;10.68;7.40;;;7.80;99.90;;;;;;12499243;28;20404;-40
2021/12/29 20:16:42;;;;;;;11.87;7.60;;;7.90;99.90;;;;;;12512177;28;20650;-39
2021/12/29 20:22:54;;;;;;;10.95;8.27;;;7.90;99.90;;;;;;12494400;28;20075;-40
2021/12/29 20:29:14;;;;;;;10.23;7.05;;;7.90;99.90;;;;;;12532631;28;20060;-37
2021/12/29 20:35:30;;;;;;;14.25;8.02;;;8.00;99.90;;;;;;12517160;28;20075;-38
2021/12/29 20:41:47;;;;;;;12.18;8.40;;;8.00;99.90;;;;;;12503454;28;20052;-38
2021/12/29 20:48:01;;;;;;;11.15;7.93;;;8.10;99.90;;;;;;12530736;28;20081;-39
2021/12/29 20:54:12;;;;;;;11.27;8.20;;;8.20;99.90;;;;;;12525817;28;20083;-39
2021/12/29 21:00:32;;;;;;;8.88;7.10;;;8.30;99.90;;;;;;12524965;28;20049;-38
2021/12/29 21:06:50;;;;;;;9.77;7.15;;;8.50;99.90;;;;;;12508833;28;20052;-39
2021/12/29 21:13:02;;;;;;;10.35;7.30;;;8.70;99.90;;;;;;12527815;28;20049;-38
2021/12/29 21:19:19;;;;;;;10.70;8.10;;;8.60;99.90;;;;;;12526754;28;20278;-38
2021/12/29 21:25:34;;;;;;;11.02;8.40;;;8.70;99.90;;;;;;12530584;28;20413;-39
2021/12/29 21:31:46;;;;;;;12.15;9.50;;;8.80;99.90;;;;;;12531848;28;20080;-38
2021/12/29 21:38:00;;;;;;;14.52;11.20;;;8.80;99.90;;;;;;12525868;28;20056;-38
2021/12/29 21:44:18;;;;;;;16.13;12.02;;;8.80;99.90;;;;;;12483093;28;20049;-40
2021/12/29 21:50:32;;;;;;;18.40;13.68;;;8.90;99.90;;;;;;12529474;28;20095;-38
2021/12/29 21:56:42;;;;;;;19.75;13.40;;;9.00;99.90;;;;;;12521178;28;20048;-39
2021/12/29 22:02:54;;;;;;;21.35;14.57;;;9.10;99.90;;;;;;12534327;28;20068;-38
2021/12/29 22:09:06;;;;;;;23.25;14.48;;;9.10;99.90;;;;;;12520761;28;20123;-39
2021/12/29 22:15:18;;;;;;;25.10;15.32;;;9.40;99.90;;;;;;12528643;28;20600;-39
2021/12/29 22:21:31;;;;;;;32.30;18.42;;;9.40;99.90;;;;;;12528715;28;20048;-38
2021/12/29 22:27:41;;;;;;;38.83;20.75;;;9.70;99.90;;;;;;12518464;28;20049;-39
2021/12/29 22:33:53;;;;;;;40.20;21.58;;;9.80;99.90;;;;;;12517029;28;20050;-39
2021/12/29 22:40:11;;;;;;;41.45;23.52;;;10.00;99.90;;;;;;12514306;28;20064;-38
2021/12/29 22:46:23;;;;;;;39.35;23.73;;;10.10;99.90;;;;;;12515617;28;20045;-38
2021/12/29 22:52:32;;;;;;;46.45;24.63;;;10.10;99.90;;;;;;12524741;28;20481;-39
2021/12/29 22:58:40;;;;;;;42.90;24.27;;;10.20;99.90;;;;;;12530797;28;20494;-38
2021/12/29 23:04:48;;;;;;;40.72;23.65;;;10.20;99.90;;;;;;12528417;28;20053;-38
2021/12/29 23:11:00;;;;;;;37.28;22.27;;;10.30;99.90;;;;;;12532710;28;20040;-39
2021/12/29 23:17:06;;;;;;;45.03;22.92;;;10.30;99.90;;;;;;12531217;28;20849;-38
2021/12/29 23:23:15;;;;;;;;;;;10.40;99.90;;;;;;12529633;28;20053;-40
2021/12/29 23:29:28;;;;;;;40.50;21.60;;;10.30;99.90;;;;;;12515446;28;19932;-39
2021/12/29 23:35:37;;;;;;;35.42;20.33;;;10.40;99.90;;;;;;12530013;28;20037;-39
2021/12/29 23:41:46;;;;;;;35.17;19.85;;;10.50;99.90;;;;;;12534300;28;20064;-40
2021/12/29 23:47:55;;;;;;;36.90;19.20;;;10.50;99.90;;;;;;12531110;28;20476;-40
2021/12/29 23:54:03;;;;;;;33.25;19.45;;;10.50;99.90;;;;;;12526600;28;20501;-40
